Orlando, Florida
Traffic Map
Current Weather Conditions
Orlando, Florida
Few Clouds
Few Clouds
92°
Feels Like: 102°
Wind Chill: 92° Ceiling: Unl
Heat Index: 102° Visibility: 10mi
Dew Point: 74° Wind: 3mph
Humidity: 55% Direction: ° ()
Pressure: 30.06in Gusts: 0mph
Raw Report DataKORL 301653Z VRB03KT 10SM FEW039 33/23 A3006 RMK AO2 SLP182 T03330233
Traffic Incident Summary
Active as of:
Severity:
Category:
InformationThere was an issue retrieving the traffic information for this location. Please try a different location or try again shortly.
Advertisements
Track Severe Weather on mobile